sensor_id;sensor_type;location;lat;lon;timestamp;P1;durP1;ratioP1;P2;durP2;ratioP2
2219;SDS011;1116;51.502;7.414;2023-09-12T00:01:19;3.17;;;1.40;;
2219;SDS011;1116;51.502;7.414;2023-09-12T00:03:52;2.30;;;1.45;;
2219;SDS011;1116;51.502;7.414;2023-09-12T00:06:23;1.60;;;1.45;;
2219;SDS011;1116;51.502;7.414;2023-09-12T00:08:57;2.83;;;1.92;;
2219;SDS011;1116;51.502;7.414;2023-09-12T00:11:29;1.98;;;1.40;;
2219;SDS011;1116;51.502;7.414;2023-09-12T00:14:00;2.72;;;1.55;;
2219;SDS011;1116;51.502;7.414;2023-09-12T00:16:31;3.03;;;2.10;;
2219;SDS011;1116;51.502;7.414;2023-09-12T00:19:02;3.22;;;1.60;;
2219;SDS011;1116;51.502;7.414;2023-09-12T00:21:33;3.45;;;1.85;;
2219;SDS011;1116;51.502;7.414;2023-09-12T00:24:07;2.20;;;1.42;;
2219;SDS011;1116;51.502;7.414;2023-09-12T00:26:39;2.90;;;1.33;;
2219;SDS011;1116;51.502;7.414;2023-09-12T00:29:10;1.98;;;1.45;;
2219;SDS011;1116;51.502;7.414;2023-09-12T00:31:41;2.15;;;1.75;;
2219;SDS011;1116;51.502;7.414;2023-09-12T00:34:15;2.55;;;1.50;;
2219;SDS011;1116;51.502;7.414;2023-09-12T00:36:47;1.75;;;1.17;;
2219;SDS011;1116;51.502;7.414;2023-09-12T00:39:21;3.60;;;1.40;;
2219;SDS011;1116;51.502;7.414;2023-09-12T00:41:52;3.33;;;1.92;;
2219;SDS011;1116;51.502;7.414;2023-09-12T00:44:23;4.45;;;1.30;;
2219;SDS011;1116;51.502;7.414;2023-09-12T00:46:54;1.77;;;1.48;;
2219;SDS011;1116;51.502;7.414;2023-09-12T00:49:26;2.97;;;1.75;;
2219;SDS011;1116;51.502;7.414;2023-09-12T00:51:59;1.65;;;1.40;;
2219;SDS011;1116;51.502;7.414;2023-09-12T00:54:34;1.35;;;1.25;;
2219;SDS011;1116;51.502;7.414;2023-09-12T00:57:06;2.25;;;1.67;;
2219;SDS011;1116;51.502;7.414;2023-09-12T00:59:38;2.50;;;1.45;;
2219;SDS011;1116;51.502;7.414;2023-09-12T01:02:09;1.60;;;1.50;;
2219;SDS011;1116;51.502;7.414;2023-09-12T01:04:41;2.63;;;1.45;;
2219;SDS011;1116;51.502;7.414;2023-09-12T01:07:12;2.35;;;1.70;;
2219;SDS011;1116;51.502;7.414;2023-09-12T01:09:46;3.33;;;1.70;;
2219;SDS011;1116;51.502;7.414;2023-09-12T01:12:18;2.65;;;1.75;;
2219;SDS011;1116;51.502;7.414;2023-09-12T01:14:50;2.92;;;2.05;;
2219;SDS011;1116;51.502;7.414;2023-09-12T01:17:21;4.70;;;2.08;;
2219;SDS011;1116;51.502;7.414;2023-09-12T01:19:52;3.55;;;2.28;;
2219;SDS011;1116;51.502;7.414;2023-09-12T01:25:48;2.92;;;1.92;;
2219;SDS011;1116;51.502;7.414;2023-09-12T01:29:00;3.03;;;1.85;;
2219;SDS011;1116;51.502;7.414;2023-09-12T01:31:34;2.88;;;2.13;;
2219;SDS011;1116;51.502;7.414;2023-09-12T01:34:08;3.85;;;2.33;;
2219;SDS011;1116;51.502;7.414;2023-09-12T01:36:40;3.47;;;2.00;;
2219;SDS011;1116;51.502;7.414;2023-09-12T01:39:11;2.97;;;2.38;;
2219;SDS011;1116;51.502;7.414;2023-09-12T01:41:42;11.02;;;3.20;;
2219;SDS011;1116;51.502;7.414;2023-09-12T01:44:19;4.47;;;3.50;;
2219;SDS011;1116;51.502;7.414;2023-09-12T01:46:52;5.90;;;3.70;;
2219;SDS011;1116;51.502;7.414;2023-09-12T01:49:24;10.65;;;4.45;;
2219;SDS011;1116;51.502;7.414;2023-09-12T01:51:58;7.68;;;5.18;;
2219;SDS011;1116;51.502;7.414;2023-09-12T01:54:30;10.93;;;5.50;;
2219;SDS011;1116;51.502;7.414;2023-09-12T01:57:02;9.05;;;5.30;;
2219;SDS011;1116;51.502;7.414;2023-09-12T01:59:38;10.05;;;4.38;;
2219;SDS011;1116;51.502;7.414;2023-09-12T02:02:09;10.63;;;5.78;;
2219;SDS011;1116;51.502;7.414;2023-09-12T02:04:41;8.32;;;4.90;;
2219;SDS011;1116;51.502;7.414;2023-09-12T02:07:12;7.90;;;4.47;;
2219;SDS011;1116;51.502;7.414;2023-09-12T02:09:43;8.68;;;4.47;;
2219;SDS011;1116;51.502;7.414;2023-09-12T02:12:14;8.43;;;3.72;;
2219;SDS011;1116;51.502;7.414;2023-09-12T02:14:48;7.20;;;4.38;;
2219;SDS011;1116;51.502;7.414;2023-09-12T02:17:19;6.70;;;4.10;;
2219;SDS011;1116;51.502;7.414;2023-09-12T02:19:51;5.80;;;3.65;;
2219;SDS011;1116;51.502;7.414;2023-09-12T02:22:22;7.30;;;4.35;;
2219;SDS011;1116;51.502;7.414;2023-09-12T02:24:53;6.22;;;3.42;;
2219;SDS011;1116;51.502;7.414;2023-09-12T02:27:24;9.65;;;4.43;;
2219;SDS011;1116;51.502;7.414;2023-09-12T02:29:58;7.35;;;4.22;;
2219;SDS011;1116;51.502;7.414;2023-09-12T02:32:30;9.88;;;5.30;;
2219;SDS011;1116;51.502;7.414;2023-09-12T02:35:01;10.77;;;5.30;;
2219;SDS011;1116;51.502;7.414;2023-09-12T02:37:33;9.57;;;3.92;;
2219;SDS011;1116;51.502;7.414;2023-09-12T02:40:05;8.55;;;5.43;;
2219;SDS011;1116;51.502;7.414;2023-09-12T02:42:39;9.13;;;4.97;;
2219;SDS011;1116;51.502;7.414;2023-09-12T02:45:13;8.23;;;5.07;;
2219;SDS011;1116;51.502;7.414;2023-09-12T02:47:44;12.48;;;6.43;;
2219;SDS011;1116;51.502;7.414;2023-09-12T02:50:15;12.35;;;6.05;;
2219;SDS011;1116;51.502;7.414;2023-09-12T02:52:47;6.95;;;4.35;;
2219;SDS011;1116;51.502;7.414;2023-09-12T02:55:18;10.40;;;5.20;;
2219;SDS011;1116;51.502;7.414;2023-09-12T02:57:49;9.48;;;5.30;;
2219;SDS011;1116;51.502;7.414;2023-09-12T03:00:23;10.80;;;6.25;;
2219;SDS011;1116;51.502;7.414;2023-09-12T03:02:54;8.17;;;5.03;;
2219;SDS011;1116;51.502;7.414;2023-09-12T03:05:26;10.07;;;4.78;;
2219;SDS011;1116;51.502;7.414;2023-09-12T03:07:57;9.38;;;5.30;;
2219;SDS011;1116;51.502;7.414;2023-09-12T03:10:28;9.80;;;5.63;;
2219;SDS011;1116;51.502;7.414;2023-09-12T03:12:59;8.77;;;5.53;;
2219;SDS011;1116;51.502;7.414;2023-09-12T03:15:37;8.50;;;5.60;;
2219;SDS011;1116;51.502;7.414;2023-09-12T03:18:09;10.32;;;5.85;;
2219;SDS011;1116;51.502;7.414;2023-09-12T03:20:41;11.27;;;5.70;;
2219;SDS011;1116;51.502;7.414;2023-09-12T03:23:12;10.50;;;5.82;;
2219;SDS011;1116;51.502;7.414;2023-09-12T03:25:43;11.52;;;6.13;;
2219;SDS011;1116;51.502;7.414;2023-09-12T03:28:15;8.65;;;5.07;;
2219;SDS011;1116;51.502;7.414;2023-09-12T03:30:49;9.65;;;4.82;;
2219;SDS011;1116;51.502;7.414;2023-09-12T03:33:20;9.73;;;5.43;;
2219;SDS011;1116;51.502;7.414;2023-09-12T03:35:51;10.35;;;6.32;;
2219;SDS011;1116;51.502;7.414;2023-09-12T03:38:22;10.63;;;5.55;;
2219;SDS011;1116;51.502;7.414;2023-09-12T03:40:53;12.38;;;6.50;;
2219;SDS011;1116;51.502;7.414;2023-09-12T03:43:24;14.50;;;7.10;;
2219;SDS011;1116;51.502;7.414;2023-09-12T03:45:58;25.95;;;11.52;;
2219;SDS011;1116;51.502;7.414;2023-09-12T03:51:04;22.83;;;10.57;;
2219;SDS011;1116;51.502;7.414;2023-09-12T03:53:35;18.13;;;9.98;;
2219;SDS011;1116;51.502;7.414;2023-09-12T03:56:06;20.85;;;11.35;;
2219;SDS011;1116;51.502;7.414;2023-09-12T03:58:40;19.92;;;10.10;;
2219;SDS011;1116;51.502;7.414;2023-09-12T04:01:14;22.30;;;9.88;;
2219;SDS011;1116;51.502;7.414;2023-09-12T04:03:45;20.73;;;9.80;;
2219;SDS011;1116;51.502;7.414;2023-09-12T04:06:17;19.65;;;9.45;;
2219;SDS011;1116;51.502;7.414;2023-09-12T04:08:48;19.00;;;9.75;;
2219;SDS011;1116;51.502;7.414;2023-09-12T04:11:19;25.73;;;10.85;;
2219;SDS011;1116;51.502;7.414;2023-09-12T04:14:10;22.45;;;10.90;;
2219;SDS011;1116;51.502;7.414;2023-09-12T04:16:44;26.75;;;9.52;;
2219;SDS011;1116;51.502;7.414;2023-09-12T04:19:15;24.05;;;10.70;;
2219;SDS011;1116;51.502;7.414;2023-09-12T04:21:47;25.73;;;12.10;;
2219;SDS011;1116;51.502;7.414;2023-09-12T04:24:18;21.33;;;11.05;;
2219;SDS011;1116;51.502;7.414;2023-09-12T04:26:49;20.73;;;10.43;;
2219;SDS011;1116;51.502;7.414;2023-09-12T04:29:21;23.67;;;10.32;;
2219;SDS011;1116;51.502;7.414;2023-09-12T04:31:54;19.95;;;10.18;;
2219;SDS011;1116;51.502;7.414;2023-09-12T04:34:26;19.70;;;9.45;;
2219;SDS011;1116;51.502;7.414;2023-09-12T04:36:58;18.70;;;9.35;;
2219;SDS011;1116;51.502;7.414;2023-09-12T04:39:30;18.33;;;8.75;;
2219;SDS011;1116;51.502;7.414;2023-09-12T04:42:01;17.10;;;8.88;;
2219;SDS011;1116;51.502;7.414;2023-09-12T04:44:34;15.93;;;7.47;;
2219;SDS011;1116;51.502;7.414;2023-09-12T04:47:08;15.55;;;8.48;;
2219;SDS011;1116;51.502;7.414;2023-09-12T04:49:39;16.38;;;8.18;;
2219;SDS011;1116;51.502;7.414;2023-09-12T04:52:12;16.00;;;8.30;;
2219;SDS011;1116;51.502;7.414;2023-09-12T04:54:43;14.52;;;7.22;;
2219;SDS011;1116;51.502;7.414;2023-09-12T04:57:14;11.50;;;6.22;;
2219;SDS011;1116;51.502;7.414;2023-09-12T04:59:46;9.60;;;5.63;;
2219;SDS011;1116;51.502;7.414;2023-09-12T05:02:19;11.52;;;6.00;;
2219;SDS011;1116;51.502;7.414;2023-09-12T05:04:50;9.60;;;6.00;;
2219;SDS011;1116;51.502;7.414;2023-09-12T05:07:22;9.75;;;5.68;;
2219;SDS011;1116;51.502;7.414;2023-09-12T05:09:53;9.48;;;5.13;;
2219;SDS011;1116;51.502;7.414;2023-09-12T05:12:24;9.32;;;5.97;;
2219;SDS011;1116;51.502;7.414;2023-09-12T05:14:56;9.85;;;5.20;;
2219;SDS011;1116;51.502;7.414;2023-09-12T05:17:30;9.50;;;5.28;;
2219;SDS011;1116;51.502;7.414;2023-09-12T05:20:01;12.68;;;6.30;;
2219;SDS011;1116;51.502;7.414;2023-09-12T05:22:34;7.53;;;4.80;;
2219;SDS011;1116;51.502;7.414;2023-09-12T05:25:05;8.20;;;5.30;;
2219;SDS011;1116;51.502;7.414;2023-09-12T05:27:38;9.52;;;5.57;;
2219;SDS011;1116;51.502;7.414;2023-09-12T05:30:10;12.18;;;6.35;;
2219;SDS011;1116;51.502;7.414;2023-09-12T05:32:45;11.20;;;6.00;;
2219;SDS011;1116;51.502;7.414;2023-09-12T05:35:16;9.25;;;5.13;;
2219;SDS011;1116;51.502;7.414;2023-09-12T05:37:49;10.98;;;6.47;;
2219;SDS011;1116;51.502;7.414;2023-09-12T05:40:21;10.20;;;6.45;;
2219;SDS011;1116;51.502;7.414;2023-09-12T05:42:52;9.43;;;5.07;;
2219;SDS011;1116;51.502;7.414;2023-09-12T05:45:23;9.73;;;5.10;;
2219;SDS011;1116;51.502;7.414;2023-09-12T05:47:59;10.93;;;5.60;;
2219;SDS011;1116;51.502;7.414;2023-09-12T05:50:31;10.18;;;5.90;;
2219;SDS011;1116;51.502;7.414;2023-09-12T05:53:02;10.73;;;6.32;;
2219;SDS011;1116;51.502;7.414;2023-09-12T05:55:33;13.95;;;8.50;;
2219;SDS011;1116;51.502;7.414;2023-09-12T05:58:05;18.02;;;8.20;;
2219;SDS011;1116;51.502;7.414;2023-09-12T06:00:36;16.35;;;8.32;;
2219;SDS011;1116;51.502;7.414;2023-09-12T06:03:14;16.77;;;8.45;;
2219;SDS011;1116;51.502;7.414;2023-09-12T06:05:46;14.65;;;7.32;;
2219;SDS011;1116;51.502;7.414;2023-09-12T06:08:18;13.10;;;7.03;;
2219;SDS011;1116;51.502;7.414;2023-09-12T06:10:49;15.10;;;6.32;;
2219;SDS011;1116;51.502;7.414;2023-09-12T06:13:22;13.57;;;7.05;;
2219;SDS011;1116;51.502;7.414;2023-09-12T06:15:53;19.13;;;8.27;;
2219;SDS011;1116;51.502;7.414;2023-09-12T06:18:27;11.25;;;6.32;;
2219;SDS011;1116;51.502;7.414;2023-09-12T06:20:59;13.05;;;6.78;;
2219;SDS011;1116;51.502;7.414;2023-09-12T06:23:33;11.20;;;6.53;;
2219;SDS011;1116;51.502;7.414;2023-09-12T06:26:05;12.70;;;6.90;;
2219;SDS011;1116;51.502;7.414;2023-09-12T06:28:36;10.23;;;6.22;;
2219;SDS011;1116;51.502;7.414;2023-09-12T06:31:07;13.18;;;7.38;;
2219;SDS011;1116;51.502;7.414;2023-09-12T06:33:42;10.70;;;6.88;;
2219;SDS011;1116;51.502;7.414;2023-09-12T06:36:13;9.65;;;6.45;;
2219;SDS011;1116;51.502;7.414;2023-09-12T06:38:44;17.70;;;8.15;;
2219;SDS011;1116;51.502;7.414;2023-09-12T06:41:15;10.20;;;6.38;;
2219;SDS011;1116;51.502;7.414;2023-09-12T06:43:49;10.30;;;6.40;;
2219;SDS011;1116;51.502;7.414;2023-09-12T06:46:20;17.42;;;7.28;;
2219;SDS011;1116;51.502;7.414;2023-09-12T06:48:54;11.95;;;7.10;;
2219;SDS011;1116;51.502;7.414;2023-09-12T06:51:25;13.45;;;7.43;;
2219;SDS011;1116;51.502;7.414;2023-09-12T06:54:02;12.23;;;8.00;;
2219;SDS011;1116;51.502;7.414;2023-09-12T06:56:34;13.45;;;7.38;;
2219;SDS011;1116;51.502;7.414;2023-09-12T06:59:05;13.25;;;8.02;;
2219;SDS011;1116;51.502;7.414;2023-09-12T07:01:37;21.45;;;8.90;;
2219;SDS011;1116;51.502;7.414;2023-09-12T07:04:11;14.57;;;7.40;;
2219;SDS011;1116;51.502;7.414;2023-09-12T07:06:42;15.95;;;7.45;;
2219;SDS011;1116;51.502;7.414;2023-09-12T07:09:13;13.52;;;7.38;;
2219;SDS011;1116;51.502;7.414;2023-09-12T07:11:46;9.77;;;6.05;;
2219;SDS011;1116;51.502;7.414;2023-09-12T07:14:18;14.45;;;7.55;;
2219;SDS011;1116;51.502;7.414;2023-09-12T07:16:49;11.95;;;6.80;;
2219;SDS011;1116;51.502;7.414;2023-09-12T07:19:23;11.15;;;6.47;;
2219;SDS011;1116;51.502;7.414;2023-09-12T07:21:54;12.45;;;7.50;;
2219;SDS011;1116;51.502;7.414;2023-09-12T07:24:26;14.73;;;7.63;;
2219;SDS011;1116;51.502;7.414;2023-09-12T07:26:58;14.15;;;7.32;;
2219;SDS011;1116;51.502;7.414;2023-09-12T07:29:29;10.75;;;6.53;;
2219;SDS011;1116;51.502;7.414;2023-09-12T07:32:00;9.60;;;5.80;;
2219;SDS011;1116;51.502;7.414;2023-09-12T07:34:34;9.95;;;5.85;;
2219;SDS011;1116;51.502;7.414;2023-09-12T07:37:05;9.70;;;5.70;;
2219;SDS011;1116;51.502;7.414;2023-09-12T07:39:36;8.63;;;5.82;;
2219;SDS011;1116;51.502;7.414;2023-09-12T07:42:08;7.50;;;5.10;;
2219;SDS011;1116;51.502;7.414;2023-09-12T07:44:39;9.15;;;5.20;;
2219;SDS011;1116;51.502;7.414;2023-09-12T07:47:10;8.00;;;4.85;;
2219;SDS011;1116;51.502;7.414;2023-09-12T07:49:44;12.10;;;5.00;;
2219;SDS011;1116;51.502;7.414;2023-09-12T07:52:15;9.20;;;5.03;;
2219;SDS011;1116;51.502;7.414;2023-09-12T07:54:49;9.30;;;5.72;;
2219;SDS011;1116;51.502;7.414;2023-09-12T07:57:24;8.23;;;4.95;;
2219;SDS011;1116;51.502;7.414;2023-09-12T07:59:56;10.40;;;5.75;;
2219;SDS011;1116;51.502;7.414;2023-09-12T08:02:27;13.57;;;6.32;;
2219;SDS011;1116;51.502;7.414;2023-09-12T08:05:00;8.82;;;5.40;;
2219;SDS011;1116;51.502;7.414;2023-09-12T08:07:32;7.53;;;4.35;;
2219;SDS011;1116;51.502;7.414;2023-09-12T08:10:03;7.70;;;4.65;;
2219;SDS011;1116;51.502;7.414;2023-09-12T08:12:36;8.10;;;5.00;;
2219;SDS011;1116;51.502;7.414;2023-09-12T08:15:09;10.30;;;5.85;;
2219;SDS011;1116;51.502;7.414;2023-09-12T08:17:41;8.77;;;5.43;;
2219;SDS011;1116;51.502;7.414;2023-09-12T08:20:15;9.75;;;5.63;;
2219;SDS011;1116;51.502;7.414;2023-09-12T08:22:46;10.93;;;6.68;;
2219;SDS011;1116;51.502;7.414;2023-09-12T08:25:18;16.52;;;8.25;;
2219;SDS011;1116;51.502;7.414;2023-09-12T08:27:52;12.68;;;8.13;;
2219;SDS011;1116;51.502;7.414;2023-09-12T08:30:23;12.07;;;7.82;;
2219;SDS011;1116;51.502;7.414;2023-09-12T08:32:55;13.30;;;8.68;;
2219;SDS011;1116;51.502;7.414;2023-09-12T08:35:32;13.50;;;8.10;;
2219;SDS011;1116;51.502;7.414;2023-09-12T08:38:03;13.73;;;8.55;;
2219;SDS011;1116;51.502;7.414;2023-09-12T08:40:35;17.40;;;9.88;;
2219;SDS011;1116;51.502;7.414;2023-09-12T08:43:08;10.15;;;6.85;;
2219;SDS011;1116;51.502;7.414;2023-09-12T08:45:41;11.95;;;7.00;;
2219;SDS011;1116;51.502;7.414;2023-09-12T08:48:14;15.73;;;10.90;;
2219;SDS011;1116;51.502;7.414;2023-09-12T08:50:53;20.38;;;11.15;;
2219;SDS011;1116;51.502;7.414;2023-09-12T08:53:25;16.00;;;10.90;;
2219;SDS011;1116;51.502;7.414;2023-09-12T08:55:56;21.60;;;14.25;;
2219;SDS011;1116;51.502;7.414;2023-09-12T08:58:31;23.90;;;10.60;;
2219;SDS011;1116;51.502;7.414;2023-09-12T09:01:03;11.38;;;8.23;;
2219;SDS011;1116;51.502;7.414;2023-09-12T09:03:38;11.35;;;7.03;;
2219;SDS011;1116;51.502;7.414;2023-09-12T09:06:15;14.98;;;7.30;;
2219;SDS011;1116;51.502;7.414;2023-09-12T09:08:47;9.35;;;6.63;;
2219;SDS011;1116;51.502;7.414;2023-09-12T09:11:19;9.27;;;5.97;;
2219;SDS011;1116;51.502;7.414;2023-09-12T09:13:55;7.32;;;5.43;;
2219;SDS011;1116;51.502;7.414;2023-09-12T09:16:26;8.70;;;5.45;;
2219;SDS011;1116;51.502;7.414;2023-09-12T09:18:59;7.25;;;5.45;;
2219;SDS011;1116;51.502;7.414;2023-09-12T09:21:36;7.88;;;4.82;;
2219;SDS011;1116;51.502;7.414;2023-09-12T09:24:09;5.53;;;3.70;;
2219;SDS011;1116;51.502;7.414;2023-09-12T09:26:44;6.80;;;4.38;;
2219;SDS011;1116;51.502;7.414;2023-09-12T09:29:18;6.93;;;4.18;;
2219;SDS011;1116;51.502;7.414;2023-09-12T09:31:51;7.18;;;4.47;;
2219;SDS011;1116;51.502;7.414;2023-09-12T09:34:23;5.50;;;4.03;;
2219;SDS011;1116;51.502;7.414;2023-09-12T09:36:59;6.00;;;4.10;;
2219;SDS011;1116;51.502;7.414;2023-09-12T09:39:35;4.50;;;3.35;;
2219;SDS011;1116;51.502;7.414;2023-09-12T09:42:09;3.25;;;2.80;;
2219;SDS011;1116;51.502;7.414;2023-09-12T09:44:42;6.78;;;3.08;;
2219;SDS011;1116;51.502;7.414;2023-09-12T09:47:13;5.18;;;3.60;;
2219;SDS011;1116;51.502;7.414;2023-09-12T09:49:45;5.47;;;3.35;;
2219;SDS011;1116;51.502;7.414;2023-09-12T09:52:19;4.65;;;2.65;;
2219;SDS011;1116;51.502;7.414;2023-09-12T09:54:56;4.03;;;2.78;;
2219;SDS011;1116;51.502;7.414;2023-09-12T09:57:28;2.83;;;2.17;;
2219;SDS011;1116;51.502;7.414;2023-09-12T10:00:00;4.47;;;3.08;;
2219;SDS011;1116;51.502;7.414;2023-09-12T10:02:35;2.78;;;2.08;;
2219;SDS011;1116;51.502;7.414;2023-09-12T10:05:09;3.10;;;2.42;;
2219;SDS011;1116;51.502;7.414;2023-09-12T10:07:44;2.80;;;2.10;;
2219;SDS011;1116;51.502;7.414;2023-09-12T10:10:19;5.40;;;2.28;;
2219;SDS011;1116;51.502;7.414;2023-09-12T10:12:54;1.83;;;1.50;;
2219;SDS011;1116;51.502;7.414;2023-09-12T10:15:29;2.92;;;1.83;;
2219;SDS011;1116;51.502;7.414;2023-09-12T10:18:02;2.25;;;1.45;;
2219;SDS011;1116;51.502;7.414;2023-09-12T10:20:52;1.70;;;1.30;;
2219;SDS011;1116;51.502;7.414;2023-09-12T10:23:30;3.70;;;1.58;;
2219;SDS011;1116;51.502;7.414;2023-09-12T10:26:10;3.00;;;2.13;;
2219;SDS011;1116;51.502;7.414;2023-09-12T10:28:43;2.60;;;1.70;;
2219;SDS011;1116;51.502;7.414;2023-09-12T10:31:16;5.72;;;1.90;;
2219;SDS011;1116;51.502;7.414;2023-09-12T10:33:48;1.33;;;1.00;;
2219;SDS011;1116;51.502;7.414;2023-09-12T10:36:21;2.20;;;1.50;;
2219;SDS011;1116;51.502;7.414;2023-09-12T10:38:58;1.63;;;1.50;;
2219;SDS011;1116;51.502;7.414;2023-09-12T10:41:30;2.13;;;1.67;;
2219;SDS011;1116;51.502;7.414;2023-09-12T10:44:04;2.10;;;1.42;;
2219;SDS011;1116;51.502;7.414;2023-09-12T10:46:41;1.98;;;1.35;;
2219;SDS011;1116;51.502;7.414;2023-09-12T10:49:17;1.95;;;1.15;;
2219;SDS011;1116;51.502;7.414;2023-09-12T10:51:48;2.22;;;1.52;;
2219;SDS011;1116;51.502;7.414;2023-09-12T10:54:26;1.80;;;1.13;;
2219;SDS011;1116;51.502;7.414;2023-09-12T10:57:09;1.60;;;1.30;;
2219;SDS011;1116;51.502;7.414;2023-09-12T11:02:43;2.03;;;1.27;;
2219;SDS011;1116;51.502;7.414;2023-09-12T11:08:08;2.85;;;1.48;;
2219;SDS011;1116;51.502;7.414;2023-09-12T11:10:41;1.48;;;1.10;;
2219;SDS011;1116;51.502;7.414;2023-09-12T11:13:16;5.35;;;2.65;;
2219;SDS011;1116;51.502;7.414;2023-09-12T11:21:46;3.00;;;1.48;;
2219;SDS011;1116;51.502;7.414;2023-09-12T11:24:19;3.28;;;1.50;;
2219;SDS011;1116;51.502;7.414;2023-09-12T11:26:55;1.88;;;1.35;;
2219;SDS011;1116;51.502;7.414;2023-09-12T11:29:28;2.53;;;1.85;;
2219;SDS011;1116;51.502;7.414;2023-09-12T11:32:02;2.72;;;1.70;;
2219;SDS011;1116;51.502;7.414;2023-09-12T11:34:36;1.80;;;1.30;;
2219;SDS011;1116;51.502;7.414;2023-09-12T11:37:09;3.03;;;1.83;;
2219;SDS011;1116;51.502;7.414;2023-09-12T11:39:42;3.05;;;1.77;;
2219;SDS011;1116;51.502;7.414;2023-09-12T11:42:16;2.83;;;1.58;;
2219;SDS011;1116;51.502;7.414;2023-09-12T11:44:49;3.17;;;2.08;;
2219;SDS011;1116;51.502;7.414;2023-09-12T11:47:22;4.10;;;2.70;;
2219;SDS011;1116;51.502;7.414;2023-09-12T11:49:54;2.70;;;1.92;;
2219;SDS011;1116;51.502;7.414;2023-09-12T11:52:26;2.65;;;2.13;;
2219;SDS011;1116;51.502;7.414;2023-09-12T11:54:57;2.25;;;1.77;;
2219;SDS011;1116;51.502;7.414;2023-09-12T11:57:31;2.83;;;1.90;;
2219;SDS011;1116;51.502;7.414;2023-09-12T12:00:02;2.55;;;1.88;;
2219;SDS011;1116;51.502;7.414;2023-09-12T12:02:38;3.42;;;2.33;;
2219;SDS011;1116;51.502;7.414;2023-09-12T12:05:09;2.88;;;1.95;;
2219;SDS011;1116;51.502;7.414;2023-09-12T12:07:44;3.30;;;2.15;;
2219;SDS011;1116;51.502;7.414;2023-09-12T12:10:16;3.45;;;1.80;;
2219;SDS011;1116;51.502;7.414;2023-09-12T12:12:52;4.18;;;2.20;;
2219;SDS011;1116;51.502;7.414;2023-09-12T12:15:24;2.80;;;2.05;;
2219;SDS011;1116;51.502;7.414;2023-09-12T12:17:57;2.97;;;2.30;;
2219;SDS011;1116;51.502;7.414;2023-09-12T12:20:29;4.15;;;2.28;;
2219;SDS011;1116;51.502;7.414;2023-09-12T12:23:01;3.15;;;1.83;;
2219;SDS011;1116;51.502;7.414;2023-09-12T12:25:32;3.65;;;2.28;;
2219;SDS011;1116;51.502;7.414;2023-09-12T12:28:07;3.70;;;1.90;;
2219;SDS011;1116;51.502;7.414;2023-09-12T12:30:39;4.50;;;2.47;;
2219;SDS011;1116;51.502;7.414;2023-09-12T12:33:10;3.63;;;1.73;;
2219;SDS011;1116;51.502;7.414;2023-09-12T12:36:02;2.60;;;1.60;;
2219;SDS011;1116;51.502;7.414;2023-09-12T12:38:36;3.03;;;2.03;;
2219;SDS011;1116;51.502;7.414;2023-09-12T12:41:22;2.53;;;1.58;;
2219;SDS011;1116;51.502;7.414;2023-09-12T12:44:09;2.47;;;1.70;;
2219;SDS011;1116;51.502;7.414;2023-09-12T12:46:47;3.15;;;2.17;;
2219;SDS011;1116;51.502;7.414;2023-09-12T12:49:20;2.60;;;2.08;;
2219;SDS011;1116;51.502;7.414;2023-09-12T12:51:52;2.88;;;1.67;;
2219;SDS011;1116;51.502;7.414;2023-09-12T12:54:24;2.10;;;1.67;;
2219;SDS011;1116;51.502;7.414;2023-09-12T12:56:55;3.63;;;2.10;;
2219;SDS011;1116;51.502;7.414;2023-09-12T12:59:29;2.95;;;2.05;;
2219;SDS011;1116;51.502;7.414;2023-09-12T13:02:03;1.67;;;1.45;;
2219;SDS011;1116;51.502;7.414;2023-09-12T13:04:36;2.92;;;2.15;;
2219;SDS011;1116;51.502;7.414;2023-09-12T13:07:08;2.30;;;1.67;;
2219;SDS011;1116;51.502;7.414;2023-09-12T13:09:40;2.40;;;1.75;;
2219;SDS011;1116;51.502;7.414;2023-09-12T13:12:11;4.95;;;2.28;;
2219;SDS011;1116;51.502;7.414;2023-09-12T13:14:47;2.45;;;1.75;;
2219;SDS011;1116;51.502;7.414;2023-09-12T13:17:18;3.03;;;2.05;;
2219;SDS011;1116;51.502;7.414;2023-09-12T13:19:51;2.35;;;1.95;;
2219;SDS011;1116;51.502;7.414;2023-09-12T13:22:22;3.72;;;2.70;;
2219;SDS011;1116;51.502;7.414;2023-09-12T13:24:54;4.30;;;2.38;;
2219;SDS011;1116;51.502;7.414;2023-09-12T13:27:25;2.70;;;1.83;;
2219;SDS011;1116;51.502;7.414;2023-09-12T13:29:59;3.42;;;2.05;;
2219;SDS011;1116;51.502;7.414;2023-09-12T13:35:03;5.30;;;2.42;;
2219;SDS011;1116;51.502;7.414;2023-09-12T13:37:35;3.60;;;2.55;;
2219;SDS011;1116;51.502;7.414;2023-09-12T13:40:07;3.90;;;2.65;;
2219;SDS011;1116;51.502;7.414;2023-09-12T13:42:39;3.28;;;2.25;;
2219;SDS011;1116;51.502;7.414;2023-09-12T13:45:15;3.60;;;2.87;;
2219;SDS011;1116;51.502;7.414;2023-09-12T13:47:47;4.97;;;3.00;;
2219;SDS011;1116;51.502;7.414;2023-09-12T13:50:18;3.33;;;2.45;;
2219;SDS011;1116;51.502;7.414;2023-09-12T13:52:51;5.68;;;2.40;;
2219;SDS011;1116;51.502;7.414;2023-09-12T13:55:24;3.60;;;2.53;;
2219;SDS011;1116;51.502;7.414;2023-09-12T13:57:57;5.57;;;4.10;;
2219;SDS011;1116;51.502;7.414;2023-09-12T14:00:31;4.82;;;3.53;;
2219;SDS011;1116;51.502;7.414;2023-09-12T14:03:04;4.55;;;2.40;;
2219;SDS011;1116;51.502;7.414;2023-09-12T14:05:36;4.05;;;3.25;;
2219;SDS011;1116;51.502;7.414;2023-09-12T14:08:09;6.32;;;3.38;;
2219;SDS011;1116;51.502;7.414;2023-09-12T14:10:41;4.55;;;3.67;;
2219;SDS011;1116;51.502;7.414;2023-09-12T14:13:13;3.65;;;2.45;;
2219;SDS011;1116;51.502;7.414;2023-09-12T14:15:51;6.63;;;3.00;;
2219;SDS011;1116;51.502;7.414;2023-09-12T14:18:24;4.18;;;3.00;;
2219;SDS011;1116;51.502;7.414;2023-09-12T14:20:57;7.20;;;3.17;;
2219;SDS011;1116;51.502;7.414;2023-09-12T14:23:29;3.75;;;2.72;;
2219;SDS011;1116;51.502;7.414;2023-09-12T14:26:00;4.55;;;3.42;;
2219;SDS011;1116;51.502;7.414;2023-09-12T14:28:32;4.60;;;3.08;;
2219;SDS011;1116;51.502;7.414;2023-09-12T14:31:06;6.00;;;2.95;;
2219;SDS011;1116;51.502;7.414;2023-09-12T14:33:41;4.80;;;3.60;;
2219;SDS011;1116;51.502;7.414;2023-09-12T14:36:13;5.75;;;3.22;;
2219;SDS011;1116;51.502;7.414;2023-09-12T14:38:44;6.63;;;3.22;;
2219;SDS011;1116;51.502;7.414;2023-09-12T14:41:16;5.10;;;2.80;;
2219;SDS011;1116;51.502;7.414;2023-09-12T14:43:47;5.38;;;3.58;;
2219;SDS011;1116;51.502;7.414;2023-09-12T14:46:21;5.32;;;3.55;;
2219;SDS011;1116;51.502;7.414;2023-09-12T14:48:52;7.53;;;3.83;;
2219;SDS011;1116;51.502;7.414;2023-09-12T14:51:29;4.88;;;3.60;;
2219;SDS011;1116;51.502;7.414;2023-09-12T14:54:01;5.53;;;3.60;;
2219;SDS011;1116;51.502;7.414;2023-09-12T14:56:33;4.93;;;3.22;;
2219;SDS011;1116;51.502;7.414;2023-09-12T14:59:05;4.22;;;2.60;;
2219;SDS011;1116;51.502;7.414;2023-09-12T15:01:39;6.38;;;4.00;;
2219;SDS011;1116;51.502;7.414;2023-09-12T15:04:11;7.95;;;5.47;;
2219;SDS011;1116;51.502;7.414;2023-09-12T15:06:42;3.78;;;2.53;;
2219;SDS011;1116;51.502;7.414;2023-09-12T15:09:14;5.88;;;3.70;;
2219;SDS011;1116;51.502;7.414;2023-09-12T15:11:45;5.55;;;3.53;;
2219;SDS011;1116;51.502;7.414;2023-09-12T15:14:17;6.38;;;3.65;;
2219;SDS011;1116;51.502;7.414;2023-09-12T15:16:52;7.40;;;4.78;;
2219;SDS011;1116;51.502;7.414;2023-09-12T15:19:24;4.88;;;3.67;;
2219;SDS011;1116;51.502;7.414;2023-09-12T15:21:56;9.02;;;5.05;;
2219;SDS011;1116;51.502;7.414;2023-09-12T15:24:27;5.20;;;4.22;;
2219;SDS011;1116;51.502;7.414;2023-09-12T15:26:59;4.63;;;3.40;;
2219;SDS011;1116;51.502;7.414;2023-09-12T15:29:30;7.95;;;4.07;;
2219;SDS011;1116;51.502;7.414;2023-09-12T15:32:05;5.63;;;4.35;;
2219;SDS011;1116;51.502;7.414;2023-09-12T15:37:09;6.38;;;3.88;;
2219;SDS011;1116;51.502;7.414;2023-09-12T15:39:49;7.35;;;4.60;;
2219;SDS011;1116;51.502;7.414;2023-09-12T15:42:20;5.85;;;4.30;;
2219;SDS011;1116;51.502;7.414;2023-09-12T15:45:04;6.60;;;4.30;;
2219;SDS011;1116;51.502;7.414;2023-09-12T15:47:41;5.63;;;3.90;;
2219;SDS011;1116;51.502;7.414;2023-09-12T15:50:13;7.13;;;4.37;;
2219;SDS011;1116;51.502;7.414;2023-09-12T15:52:45;7.28;;;4.82;;
2219;SDS011;1116;51.502;7.414;2023-09-12T15:55:17;5.85;;;3.92;;
2219;SDS011;1116;51.502;7.414;2023-09-12T15:57:48;5.30;;;3.90;;
2219;SDS011;1116;51.502;7.414;2023-09-12T16:00:22;6.45;;;3.97;;
2219;SDS011;1116;51.502;7.414;2023-09-12T16:02:56;5.97;;;4.22;;
2219;SDS011;1116;51.502;7.414;2023-09-12T16:05:28;9.85;;;4.68;;
2219;SDS011;1116;51.502;7.414;2023-09-12T16:08:00;5.72;;;4.18;;